Time;durP1;ratioP1;P1;durP2;ratioP2;P2;SDS_P1;SDS_P2;PMS_P1;PMS_P2;Temp;Humidity;BMP_temperature;BMP_pressure;BME280_temperature;BME280_humidity;BME280_pressure;Samples;Min_cycle;Max_cycle;Signal;HPM_P1;HPM_P2
2022/04/20 00:01:30;;;;;;;4.18;3.40;;;;;;;7.10;76.45;99728.22;5007424;28;20093;-56
2022/04/20 00:03:56;;;;;;;7.38;3.38;;;;;;;7.13;76.17;99733.34;4994225;28;20498;-58
2022/04/20 00:06:21;;;;;;;6.10;3.30;;;;;;;7.02;76.41;99735.13;4994305;28;20027;-57
2022/04/20 00:08:47;;;;;;;3.95;3.30;;;;;;;6.99;76.48;99746.31;4994090;28;20041;-58
2022/04/20 00:11:13;;;;;;;4.32;3.33;;;;;;;6.95;76.20;99734.31;5001716;28;20080;-58
2022/04/20 00:13:38;;;;;;;4.97;3.53;;;;;;;7.01;75.94;99754.91;5001845;28;20022;-58
2022/04/20 00:16:04;;;;;;;4.00;3.42;;;;;;;6.95;76.57;99754.06;4993818;28;20030;-58
2022/04/20 00:18:30;;;;;;;4.90;3.47;;;;;;;6.95;76.55;99756.63;4993629;28;20038;-58
2022/04/20 00:20:55;;;;;;;3.65;3.17;;;;;;;6.73;76.67;99765.31;4985077;28;20102;-59
2022/04/20 00:23:21;;;;;;;4.47;3.58;;;;;;;6.79;76.91;99759.28;4999675;28;20383;-58
2022/04/20 00:25:46;;;;;;;4.40;3.78;;;;;;;6.70;77.49;99773.06;5013282;28;20037;-58
2022/04/20 00:28:12;;;;;;;4.85;3.30;;;;;;;6.77;77.04;99761.03;5007746;28;20066;-58
2022/04/20 00:30:37;;;;;;;4.97;3.30;;;;;;;6.76;76.67;99763.59;4993624;28;20053;-59
2022/04/20 00:33:03;;;;;;;6.65;3.65;;;;;;;6.65;77.09;99751.63;4993402;28;20030;-59
2022/04/20 00:35:29;;;;;;;4.05;3.42;;;;;;;6.70;77.00;99760.19;4993638;28;20091;-59
2022/04/20 00:37:54;;;;;;;6.00;3.25;;;;;;;6.61;76.65;99761.94;4993352;28;20067;-60
2022/04/20 00:40:20;;;;;;;4.82;3.45;;;;;;;6.60;76.89;99766.25;4997887;28;20076;-59
2022/04/20 00:42:47;;;;;;;5.38;3.33;;;;;;;6.33;76.22;99697.75;4995332;28;20050;-58
2022/04/20 00:47:59;;;;;;;4.00;3.20;;;;;;;6.58;76.22;99752.50;4992864;28;20041;-58
2022/04/20 00:50:25;;;;;;;8.25;3.33;;;;;;;6.64;75.75;99747.34;5007039;28;20022;-57
2022/04/20 00:52:51;;;;;;;5.15;3.65;;;;;;;6.51;75.86;99745.69;4997946;28;20175;-57
2022/04/20 00:55:16;;;;;;;5.10;3.00;;;;;;;6.60;75.32;99743.09;5001927;28;20026;-58
2022/04/20 00:57:42;;;;;;;5.60;3.45;;;;;;;6.44;75.37;99739.72;4993153;28;20089;-59
2022/04/20 01:00:08;;;;;;;3.67;3.25;;;;;;;6.26;75.99;99740.63;4967211;28;20030;-59
2022/04/20 01:02:34;;;;;;;4.25;3.25;;;;;;;6.43;75.15;99758.59;4987928;28;20050;-59
2022/04/20 01:04:59;;;;;;;5.28;3.17;;;;;;;6.43;75.06;99752.56;4993094;28;20030;-59
2022/04/20 01:07:25;;;;;;;4.35;3.35;;;;;;;6.43;74.96;99762.84;4998114;28;20112;-59
2022/04/20 01:09:50;;;;;;;5.13;3.00;;;;;;;6.36;75.32;99765.44;5012034;28;20066;-59
2022/04/20 01:12:18;;;;;;;3.30;2.80;;;;;;;6.35;74.96;99750.03;5011335;28;20030;-58
2022/04/20 01:14:44;;;;;;;4.13;3.30;;;;;;;6.49;74.30;99758.56;4997075;28;20026;-58
2022/04/20 01:17:10;;;;;;;5.13;3.03;;;;;;;6.40;74.49;99761.16;4992942;28;20031;-58
2022/04/20 01:19:40;;;;;;;4.30;3.00;;;;;;;6.35;74.47;99750.88;4993039;28;20034;-58
2022/04/20 01:22:07;;;;;;;6.35;2.85;;;;;;;6.47;74.05;99752.56;4976587;28;20084;-59
2022/04/20 01:24:34;;;;;;;4.82;3.22;;;;;;;6.31;74.03;99764.59;4992688;28;20381;-58
2022/04/20 01:27:01;;;;;;;3.60;2.95;;;;;;;6.26;74.24;99755.22;4993043;28;20038;-58
2022/04/20 01:29:28;;;;;;;4.60;3.13;;;;;;;6.20;74.41;99756.94;4992960;28;20081;-58
2022/04/20 01:31:54;;;;;;;3.58;2.90;;;;;;;6.19;74.07;99762.91;4992873;28;20026;-58
2022/04/20 01:34:20;;;;;;;3.72;2.90;;;;;;;5.88;74.29;99756.94;4992916;28;20026;-58
2022/04/20 01:36:45;;;;;;;6.43;2.88;;;;;;;5.99;74.01;99759.56;4993009;28;20096;-58
2022/04/20 01:39:11;;;;;;;3.67;2.58;;;;;;;5.94;73.38;99751.78;5011652;28;20025;-59
2022/04/20 01:41:37;;;;;;;3.67;3.08;;;;;;;6.10;73.19;99762.09;4983570;28;20027;-58
2022/04/20 01:44:02;;;;;;;4.60;2.80;;;;;;;6.04;72.74;99768.09;4978358;28;20547;-58
2022/04/20 01:46:28;;;;;;;4.60;3.25;;;;;;;6.12;72.59;99763.78;4978444;28;20034;-58
2022/04/20 01:48:54;;;;;;;4.78;2.72;;;;;;;6.16;72.76;99760.38;4993076;28;20030;-58
2022/04/20 01:54:03;;;;;;;3.90;2.67;;;;;;;6.21;71.99;99761.22;4994973;28;20034;-59
2022/04/20 01:56:29;;;;;;;4.82;3.10;;;;;;;6.13;72.04;99750.09;4999509;28;20030;-59
2022/04/20 01:58:54;;;;;;;4.35;2.78;;;;;;;6.05;71.59;99744.09;4984164;28;20042;-59
2022/04/20 02:04:06;;;;;;;3.55;2.85;;;;;;;6.12;70.64;99743.22;4993272;28;20399;-59
2022/04/20 02:06:32;;;;;;;4.28;3.00;;;;;;;5.87;70.83;99750.09;4976990;28;20026;-59
2022/04/20 02:08:57;;;;;;;3.65;2.70;;;;;;;5.97;70.25;99733.84;4995279;28;20038;-59
2022/04/20 02:11:23;;;;;;;3.00;2.50;;;;;;;5.95;69.21;99737.25;5003760;28;20026;-60
2022/04/20 02:13:49;;;;;;;5.20;2.35;;;;;;;5.77;69.63;99730.41;5005025;28;20034;-59
2022/04/20 02:16:14;;;;;;;5.93;2.78;;;;;;;5.83;68.99;99738.97;4996029;28;20038;-60
2022/04/20 02:18:40;;;;;;;4.47;2.38;;;;;;;5.91;68.42;99748.38;4995950;28;20023;-60
2022/04/20 02:21:05;;;;;;;3.85;2.42;;;;;;;5.76;67.74;99752.69;4993479;28;20655;-60
2022/04/20 02:23:31;;;;;;;4.50;2.47;;;;;;;5.93;67.72;99742.38;4995868;28;20352;-60
2022/04/20 02:25:56;;;;;;;4.07;2.70;;;;;;;5.81;67.14;99743.25;4995679;28;20026;-60
2022/04/20 02:28:22;;;;;;;3.38;2.50;;;;;;;5.73;66.77;99749.25;5010549;28;20042;-59
2022/04/20 02:30:47;;;;;;;2.60;2.13;;;;;;;5.82;65.78;99744.13;4995993;28;20035;-59
2022/04/20 02:33:13;;;;;;;2.90;2.40;;;;;;;5.70;64.81;99745.84;4995625;28;20042;-59
2022/04/20 02:35:40;;;;;;;2.88;2.20;;;;;;;5.94;65.18;99733.78;5009788;28;20022;-59
2022/04/20 02:38:09;;;;;;;3.88;2.25;;;;;;;5.85;64.54;99733.81;5002436;28;20058;-60
2022/04/20 02:40:35;;;;;;;5.70;2.40;;;;;;;5.83;64.10;99738.97;4995240;28;20446;-60
2022/04/20 02:43:00;;;;;;;2.95;2.22;;;;;;;5.91;63.34;99731.25;4980355;28;20023;-60
2022/04/20 02:45:26;;;;;;;2.53;1.90;;;;;;;6.03;62.39;99728.69;5002534;28;20465;-60
2022/04/20 02:47:51;;;;;;;2.80;2.00;;;;;;;5.90;62.10;99736.38;4986770;28;20090;-59
2022/04/20 02:50:17;;;;;;;3.10;2.20;;;;;;;5.82;62.34;99736.41;4996523;28;20030;-59
2022/04/20 02:52:42;;;;;;;2.70;1.85;;;;;;;5.80;61.68;99730.41;4995300;28;20077;-59
2022/04/20 02:55:08;;;;;;;3.40;2.45;;;;;;;5.83;61.43;99728.69;5004828;28;20030;-59
2022/04/20 02:57:34;;;;;;;2.83;2.03;;;;;;;5.97;61.63;99735.50;4979738;28;20034;-59
2022/04/20 02:59:59;;;;;;;3.72;2.15;;;;;;;5.89;61.59;99732.97;4975702;28;20027;-60
2022/04/20 03:02:25;;;;;;;2.65;2.20;;;;;;;5.88;61.23;99733.81;4998653;28;20076;-59
2022/04/20 03:04:51;;;;;;;2.85;2.05;;;;;;;5.91;61.45;99731.25;4999830;28;20120;-59
2022/04/20 03:07:16;;;;;;;5.28;2.20;;;;;;;6.05;60.41;99742.38;4978217;28;20035;-59
2022/04/20 03:09:42;;;;;;;3.28;1.98;;;;;;;6.15;60.46;99747.50;4994256;28;20034;-60
2022/04/20 03:12:08;;;;;;;3.35;2.65;;;;;;;6.42;59.31;99751.72;4997899;28;20026;-58
2022/04/20 03:14:34;;;;;;;4.22;1.85;;;;;;;6.73;57.63;99752.44;5000765;28;20439;-58
2022/04/20 03:16:59;;;;;;;6.38;2.08;;;;;;;7.32;54.17;99752.09;4994529;28;20018;-61
2022/04/20 03:19:25;;;;;;;4.65;1.95;;;;;;;7.38;54.61;99749.50;4990928;28;20114;-59
2022/04/20 03:21:50;;;;;;;8.50;2.28;;;;;;;8.02;52.85;99748.94;4975452;28;20027;-60
2022/04/20 03:24:16;;;;;;;3.15;1.67;;;;;;;7.67;51.74;99753.56;4993995;28;20022;-60
2022/04/20 03:26:41;;;;;;;3.80;1.65;;;;;;;8.16;52.31;99757.38;4994663;28;20046;-61
2022/04/20 03:29:07;;;;;;;3.08;1.67;;;;;;;7.62;51.77;99749.31;4994646;28;20030;-59
2022/04/20 03:31:34;;;;;;;5.00;1.77;;;;;;;7.64;50.90;99727.81;4994518;28;20018;-59
2022/04/20 03:34:01;;;;;;;5.97;1.60;;;;;;;7.82;49.78;99751.72;4977070;28;20115;-58
2022/04/20 03:36:27;;;;;;;3.15;1.50;;;;;;;8.57;49.99;99753.53;4994686;28;20038;-59
2022/04/20 03:38:53;;;;;;;3.28;1.73;;;;;;;8.33;48.12;99756.38;4994339;28;20036;-59
2022/04/20 03:41:18;;;;;;;5.63;1.50;;;;;;;8.48;49.18;99752.78;4994447;28;20105;-60
2022/04/20 03:43:45;;;;;;;4.88;1.63;;;;;;;8.65;47.42;99756.03;4994006;28;20035;-60
2022/04/20 03:46:11;;;;;;;3.42;1.90;;;;;;;9.07;45.51;99764.06;5012129;28;20475;-59
2022/04/20 03:48:36;;;;;;;3.28;1.73;;;;;;;9.53;44.73;99743.56;4994054;28;20050;-60
2022/04/20 03:51:02;;;;;;;1.73;1.42;;;;;;;9.42;43.91;99744.59;4996139;28;20035;-60
2022/04/20 03:53:28;;;;;;;3.10;1.70;;;;;;;9.11;44.92;99749.38;4981198;28;20034;-59
2022/04/20 03:55:53;;;;;;;2.80;1.48;;;;;;;8.83;45.66;99741.16;5003619;28;20019;-60
2022/04/20 03:58:19;;;;;;;5.13;1.60;;;;;;;8.91;46.75;99741.91;4993687;28;20026;-61
2022/04/20 04:00:44;;;;;;;2.92;1.35;;;;;;;8.22;46.14;99743.56;4994242;28;20089;-60
2022/04/20 04:03:10;;;;;;;5.78;3.22;;;;;;;8.51;45.84;99747.56;4993987;28;20380;-59
2022/04/20 04:05:35;;;;;;;1.83;1.25;;;;;;;8.39;44.60;99738.22;5007074;28;20033;-60
2022/04/20 04:08:01;;;;;;;2.80;1.35;;;;;;;8.41;44.68;99741.66;4996724;28;20031;-60
2022/04/20 04:10:27;;;;;;;3.47;1.65;;;;;;;8.24;45.85;99749.59;4989861;28;20380;-59
2022/04/20 04:12:55;;;;;;;4.57;1.50;;;;;;;8.30;45.24;99727.13;5000064;28;20029;-59
2022/04/20 04:15:21;;;;;;;6.18;1.73;;;;;;;8.35;45.52;99732.25;4993982;28;20035;-60
2022/04/20 04:17:51;;;;;;;2.00;1.40;;;;;;;8.31;44.30;99733.16;4993689;28;20076;-60
2022/04/20 04:20:19;;;;;;;2.47;1.60;;;;;;;8.47;44.24;99726.13;4990035;28;20411;-59
2022/04/20 04:22:45;;;;;;;2.78;1.95;;;;;;;8.19;43.57;99720.38;4987834;28;20379;-60
2022/04/20 04:25:11;;;;;;;2.80;1.60;;;;;;;8.36;43.37;99723.63;4992310;28;20029;-60
2022/04/20 04:27:36;;;;;;;2.88;1.30;;;;;;;8.29;42.66;99707.38;4992917;28;20030;-60
2022/04/20 04:30:03;;;;;;;3.72;1.90;;;;;;;8.46;42.27;99721.81;4993795;28;20046;-59
2022/04/20 04:32:29;;;;;;;2.60;1.63;;;;;;;8.48;43.23;99724.38;4993071;28;20084;-59
2022/04/20 04:34:55;;;;;;;3.40;1.33;;;;;;;8.42;42.67;99710.66;4993367;28;20467;-59
2022/04/20 04:37:20;;;;;;;1.40;1.20;;;;;;;8.52;41.90;99723.47;5010999;28;20100;-59
2022/04/20 04:39:46;;;;;;;1.52;1.30;;;;;;;8.56;41.70;99730.31;5012659;28;20026;-61
2022/04/20 04:42:11;;;;;;;2.15;1.63;;;;;;;8.62;41.12;99715.59;5012669;28;20081;-59
2022/04/20 04:44:37;;;;;;;7.03;1.80;;;;;;;8.78;42.27;99718.00;5003412;28;20030;-59
2022/04/20 04:49:58;;;;;;;6.00;1.60;;;;;;;8.66;41.53;99718.97;4932677;28;20039;-60
2022/04/20 04:52:24;;;;;;;1.70;1.15;;;;;;;8.79;40.75;99728.28;5006400;28;20030;-58
2022/04/20 04:54:50;;;;;;;5.13;1.60;;;;;;;8.94;40.95;99729.78;4992520;28;20029;-59
2022/04/20 04:57:15;;;;;;;6.57;1.67;;;;;;;9.11;40.82;99732.16;5011705;28;20096;-59
2022/04/20 04:59:43;;;;;;;3.33;1.77;;;;;;;8.72;38.97;99687.94;4992808;28;20030;-58
2022/04/20 05:02:09;;;;;;;3.83;1.50;;;;;;;9.23;39.27;99745.75;4992162;28;20050;-60
2022/04/20 05:04:36;;;;;;;5.75;1.50;;;;;;;9.07;38.41;99722.72;4972150;28;20089;-59
2022/04/20 05:07:03;;;;;;;4.80;1.67;;;;;;;9.36;37.76;99738.66;4972792;28;20039;-62
2022/04/20 05:09:29;;;;;;;2.58;1.23;;;;;;;9.49;37.81;99738.47;4977814;28;20018;-60
2022/04/20 05:11:54;;;;;;;4.30;1.30;;;;;;;9.85;36.26;99745.63;4992442;28;20026;-60
2022/04/20 05:14:20;;;;;;;2.45;1.40;;;;;;;10.26;36.57;99756.09;4994469;28;20022;-61
2022/04/20 05:16:46;;;;;;;4.15;1.52;;;;;;;10.01;35.87;99759.13;4992000;28;20026;-60
2022/04/20 05:19:11;;;;;;;5.00;1.55;;;;;;;10.04;35.42;99753.91;4992428;28;20027;-61
2022/04/20 05:21:37;;;;;;;3.22;1.48;;;;;;;10.04;34.45;99773.75;4977741;28;20078;-60
2022/04/20 05:24:03;;;;;;;5.47;1.40;;;;;;;10.42;34.66;99762.72;4988645;28;20388;-60
2022/04/20 05:26:28;;;;;;;5.40;1.60;;;;;;;10.35;33.37;99769.75;4992311;28;20069;-59
2022/04/20 05:28:54;;;;;;;4.57;1.45;;;;;;;10.25;32.38;99767.34;4991852;28;20018;-60
2022/04/20 05:31:20;;;;;;;2.97;1.60;;;;;;;10.59;32.94;99758.91;4991567;28;20476;-60
2022/04/20 05:33:46;;;;;;;6.47;1.40;;;;;;;10.33;31.67;99755.06;4991743;28;20030;-60
2022/04/20 05:36:12;;;;;;;2.90;1.27;;;;;;;10.90;32.19;99753.09;4991552;28;20022;-59
2022/04/20 05:41:41;;;;;;;4.45;1.83;;;;;;;11.46;30.33;99743.19;4995540;28;20041;-60
2022/04/20 05:44:11;;;;;;;10.07;1.70;;;;;;;12.13;29.09;99760.56;4991503;28;20112;-61
2022/04/20 05:46:38;;;;;;;4.00;1.35;;;;;;;11.57;28.61;99766.25;4994978;28;20506;-60
2022/04/20 05:49:04;;;;;;;6.15;1.27;;;;;;;11.45;29.28;99788.16;4995499;28;20022;-61
2022/04/20 05:51:30;;;;;;;3.10;1.25;;;;;;;11.55;29.29;99766.28;4976890;28;20125;-60
2022/04/20 05:53:56;;;;;;;5.93;1.55;;;;;;;11.91;28.12;99766.28;4996385;28;20546;-61
2022/04/20 05:56:21;;;;;;;7.35;2.00;;;;;;;12.05;28.48;99754.72;4995441;28;20057;-60
2022/04/20 05:58:52;;;;;;;6.30;1.90;;;;;;;12.07;29.03;99721.75;4995035;28;20471;-60
2022/04/20 06:01:18;;;;;;;3.53;1.30;;;;;;;12.20;29.36;99780.28;4995397;28;20023;-60
2022/04/20 06:03:45;;;;;;;7.25;1.40;;;;;;;12.13;30.26;99780.47;4995389;28;20376;-60
2022/04/20 06:06:11;;;;;;;5.25;1.60;;;;;;;12.45;29.76;99774.41;4995171;28;20046;-60
2022/04/20 06:08:37;;;;;;;10.75;1.50;;;;;;;12.18;29.57;99792.44;4995077;28;20015;-62
2022/04/20 06:11:03;;;;;;;2.42;1.30;;;;;;;11.62;30.72;99777.38;4994884;28;20029;-61
2022/04/20 06:13:29;;;;;;;6.40;1.13;;;;;;;11.71;30.58;99776.28;4994765;28;20054;-61
2022/04/20 06:15:55;;;;;;;2.58;1.10;;;;;;;11.36;31.33;99791.81;4994861;28;20030;-61
2022/04/20 06:18:22;;;;;;;6.38;1.13;;;;;;;11.62;31.11;99797.28;4995828;28;20030;-61
2022/04/20 06:20:47;;;;;;;10.05;1.40;;;;;;;11.64;31.25;99790.31;4987505;28;20026;-61
2022/04/20 06:23:13;;;;;;;6.60;1.40;;;;;;;11.98;31.42;99799.88;4984502;28;20605;-60
2022/04/20 06:25:39;;;;;;;2.28;1.27;;;;;;;12.16;31.14;99802.00;4994741;28;20214;-60
2022/04/20 06:28:06;;;;;;;3.25;1.40;;;;;;;12.21;30.90;99801.88;4994655;28;20483;-59
2022/04/20 06:30:31;;;;;;;4.93;1.40;;;;;;;12.00;32.14;99800.69;4994756;28;20646;-61
2022/04/20 06:32:57;;;;;;;3.67;1.02;;;;;;;12.51;31.31;99796.75;5009918;28;20104;-61
2022/04/20 06:35:23;;;;;;;2.35;1.23;;;;;;;12.52;30.44;99816.66;5004173;28;20038;-61
2022/04/20 06:37:48;;;;;;;2.60;1.50;;;;;;;12.40;30.87;99815.25;4993935;28;20026;-61
2022/04/20 06:40:15;;;;;;;5.13;1.00;;;;;;;12.22;30.67;99808.78;4993465;28;20033;-60
2022/04/20 06:42:40;;;;;;;4.43;1.70;;;;;;;12.60;29.92;99805.16;4994524;28;20030;-58
2022/04/20 06:45:07;;;;;;;3.95;1.05;;;;;;;12.67;30.97;99787.66;5005714;28;20030;-60
2022/04/20 06:47:33;;;;;;;3.30;1.30;;;;;;;13.51;31.20;99799.06;5010244;28;20038;-60
2022/04/20 06:49:59;;;;;;;1.20;1.10;;;;;;;13.14;29.14;99805.34;4995502;28;20109;-60
2022/04/20 07:00:38;;;;;;;5.63;1.27;;;;;;;13.49;27.65;99794.78;4994164;28;20030;-60
2022/04/20 07:03:06;;;;;;;1.40;1.00;;;;;;;14.13;27.34;99789.22;4980035;28;20054;-59
2022/04/20 07:05:32;;;;;;;3.95;1.55;;;;;;;14.09;26.99;99787.59;4975210;28;20057;-61
2022/04/20 07:07:58;;;;;;;3.10;1.00;;;;;;;13.91;26.19;99779.53;4974492;28;20034;-60
2022/04/20 07:10:23;;;;;;;4.07;1.20;;;;;;;14.82;26.94;99791.13;4974865;28;20027;-59
2022/04/20 07:12:51;;;;;;;2.88;1.00;;;;;;;14.37;26.92;99727.56;4974919;28;20369;-60
2022/04/20 07:15:16;;;;;;;3.53;1.20;;;;;;;14.53;25.77;99785.19;4991547;28;20036;-61
2022/04/20 07:17:42;;;;;;;5.63;1.25;;;;;;;14.80;25.26;99759.03;4969815;28;20110;-60
2022/04/20 07:20:10;;;;;;;4.72;1.05;;;;;;;14.66;24.37;99752.59;4960702;28;20066;-61
2022/04/20 07:22:37;;;;;;;3.60;1.65;;;;;;;14.24;24.98;99776.66;4959269;28;20033;-61
2022/04/20 07:25:04;;;;;;;8.50;1.23;;;;;;;14.86;25.02;99761.41;4974605;28;20484;-60
2022/04/20 07:27:29;;;;;;;6.80;1.20;;;;;;;14.59;24.94;99769.34;4974664;28;20203;-61
2022/04/20 07:29:55;;;;;;;9.18;1.60;;;;;;;14.60;25.51;99765.81;4974778;28;20539;-60
2022/04/20 07:32:20;;;;;;;2.00;1.10;;;;;;;15.24;25.66;99743.44;4974748;28;20488;-60
2022/04/20 07:34:46;;;;;;;4.35;1.20;;;;;;;15.70;24.83;99738.09;4974576;28;20424;-60
2022/04/20 07:37:12;;;;;;;2.00;1.30;;;;;;;15.66;25.40;99746.97;4974241;28;20087;-60
2022/04/20 07:39:38;;;;;;;2.13;1.27;;;;;;;15.05;24.63;99758.09;4994122;28;20033;-60
2022/04/20 07:42:05;;;;;;;12.25;3.67;;;;;;;15.64;23.99;99743.56;4993322;28;20487;-60
2022/04/20 07:44:30;;;;;;;6.55;1.08;;;;;;;15.09;24.09;99764.91;4972446;28;20027;-60
2022/04/20 07:46:56;;;;;;;5.90;1.70;;;;;;;14.78;23.20;99748.69;4960480;28;20103;-60
2022/04/20 07:52:06;;;;;;;8.25;1.20;;;;;;;14.08;23.85;99767.66;4951171;28;20070;-60
2022/04/20 07:54:32;;;;;;;6.32;1.48;;;;;;;13.96;23.85;99750.72;4969081;28;20027;-61
2022/04/20 07:56:57;;;;;;;2.53;0.80;;;;;;;14.31;24.40;99753.84;4969450;28;20031;-60
2022/04/20 07:59:23;;;;;;;8.43;1.67;;;;;;;14.77;24.37;99735.69;4966795;28;20041;-59
2022/04/20 08:02:03;;;;;;;5.13;1.10;;;;;;;14.42;24.51;99753.44;4973562;28;20057;-59
2022/04/20 08:04:29;;;;;;;4.95;1.42;;;;;;;15.10;23.52;99750.94;4970989;28;20039;-59
2022/04/20 08:06:55;;;;;;;1.83;1.40;;;;;;;13.90;24.42;99751.78;4970956;28;20037;-61
2022/04/20 08:09:20;;;;;;;2.80;0.93;;;;;;;14.10;24.34;99751.09;4969998;28;20081;-60
2022/04/20 08:11:46;;;;;;;5.30;1.23;;;;;;;14.33;24.50;99747.66;4970344;28;20035;-60
2022/04/20 08:14:11;;;;;;;4.43;1.10;;;;;;;14.28;24.59;99754.81;4969438;28;20035;-61
2022/04/20 08:16:37;;;;;;;1.85;1.23;;;;;;;13.86;23.55;99758.00;4970071;28;20395;-60
2022/04/20 08:19:03;;;;;;;2.85;1.05;;;;;;;13.87;24.45;99754.50;4953023;28;20042;-60
2022/04/20 08:21:29;;;;;;;5.78;1.35;;;;;;;13.69;22.73;99766.34;4956510;28;20087;-60
2022/04/20 08:23:55;;;;;;;4.35;1.20;;;;;;;13.69;23.52;99736.88;4962797;28;20114;-59
2022/04/20 08:26:20;;;;;;;2.20;1.20;;;;;;;13.70;23.37;99739.44;4970275;28;20031;-60
2022/04/20 08:28:46;;;;;;;4.40;1.35;;;;;;;14.17;22.56;99741.31;4953023;28;20050;-61
2022/04/20 08:31:15;;;;;;;2.88;1.13;;;;;;;14.18;22.64;99748.22;4970558;28;20031;-60
2022/04/20 08:33:41;;;;;;;3.83;1.10;;;;;;;14.08;23.76;99746.81;4951209;29;20042;-59
2022/04/20 08:36:07;;;;;;;2.83;1.00;;;;;;;14.07;22.54;99747.75;4968206;28;20638;-61
2022/04/20 08:38:33;;;;;;;2.72;1.10;;;;;;;13.85;22.79;99732.00;4969943;28;20041;-59
2022/04/20 08:41:00;;;;;;;2.95;0.98;;;;;;;13.95;23.41;99716.03;4975961;28;20026;-59
2022/04/20 08:43:29;;;;;;;3.22;1.20;;;;;;;14.02;22.53;99695.81;4988665;28;20468;-58
2022/04/20 08:46:00;;;;;;;4.80;1.20;;;;;;;14.06;22.56;99670.53;4973340;28;20460;-60
2022/04/20 08:48:26;;;;;;;5.03;1.38;;;;;;;14.19;22.76;99738.66;4972952;28;20034;-60
2022/04/20 08:50:53;;;;;;;2.42;1.20;;;;;;;14.57;22.12;99682.53;4972591;28;20038;-59
2022/04/20 08:53:20;;;;;;;4.00;0.90;;;;;;;14.79;22.47;99736.47;4972950;28;20031;-58
2022/04/20 08:55:46;;;;;;;7.28;1.40;;;;;;;14.83;22.71;99733.69;4970624;28;20038;-58
2022/04/20 08:58:12;;;;;;;5.65;1.60;;;;;;;14.28;22.56;99736.56;4972943;28;20031;-59
2022/04/20 09:00:38;;;;;;;7.32;1.20;;;;;;;14.61;22.41;99725.81;4972725;28;20022;-59
2022/04/20 09:03:04;;;;;;;16.38;1.60;;;;;;;13.94;22.61;99745.56;4972733;28;20058;-61
2022/04/20 09:05:33;;;;;;;2.28;1.45;;;;;;;13.92;22.81;99725.69;4972527;28;20035;-60
2022/04/20 09:08:13;;;;;;;4.10;1.30;;;;;;;14.04;23.46;99722.66;4973391;28;20037;-60
2022/04/20 09:10:40;;;;;;;3.80;1.13;;;;;;;14.25;23.15;99723.66;4972541;28;20122;-59
2022/04/20 09:13:11;;;;;;;2.85;1.17;;;;;;;14.39;23.32;99730.13;4972318;28;20030;-60
2022/04/20 09:15:38;;;;;;;2.47;1.00;;;;;;;14.29;23.39;99734.81;4972632;28;20061;-61
2022/04/20 09:18:06;;;;;;;2.05;1.02;;;;;;;14.03;23.10;99726.16;4955036;28;20035;-58
2022/04/20 09:20:33;;;;;;;7.03;1.30;;;;;;;14.21;23.10;99735.09;4967350;28;20059;-59
2022/04/20 09:23:02;;;;;;;4.07;1.10;;;;;;;13.93;23.71;99741.25;4970021;28;20023;-60
2022/04/20 09:25:31;;;;;;;3.13;1.08;;;;;;;13.79;23.32;99746.91;4955349;28;20037;-60
2022/04/20 09:27:57;;;;;;;8.15;1.33;;;;;;;13.83;23.45;99733.84;4973074;28;20456;-60
2022/04/20 09:30:22;;;;;;;2.67;1.20;;;;;;;13.96;22.98;99730.72;4972819;28;20464;-60
2022/04/20 09:32:49;;;;;;;2.08;1.13;;;;;;;14.21;23.78;99732.50;4973045;28;20433;-60
2022/04/20 09:35:19;;;;;;;4.03;1.20;;;;;;;14.56;23.44;99748.59;4972654;28;20559;-60
2022/04/20 09:37:45;;;;;;;2.97;1.20;;;;;;;14.56;24.38;99727.72;4976666;28;20073;-59
2022/04/20 09:40:14;;;;;;;0.82;0.82;;;;;;;14.59;24.36;99748.50;4975483;28;20046;-59
2022/04/20 09:43:06;;;;;;;1.95;1.00;;;;;;;13.91;24.48;99706.63;4972533;28;20019;-60
2022/04/20 09:45:33;;;;;;;4.93;1.67;;;;;;;14.25;25.43;99738.44;4952227;28;20031;-60
2022/04/20 09:51:09;;;;;;;3.80;1.27;;;;;;;14.04;24.95;99696.63;4971987;28;20027;-59
2022/04/20 09:53:35;;;;;;;2.13;1.20;;;;;;;14.36;24.40;99740.66;4972599;28;20042;-61
2022/04/20 09:56:21;;;;;;;5.47;1.23;;;;;;;14.33;24.28;99741.59;4972223;28;20034;-59
2022/04/20 09:58:59;;;;;;;2.38;1.13;;;;;;;14.11;24.23;99689.44;4972251;28;20023;-60
2022/04/20 10:01:32;;;;;;;2.55;1.10;;;;;;;14.19;24.82;99681.34;4972764;28;20031;-60
2022/04/20 10:03:59;;;;;;;2.22;1.10;;;;;;;14.72;24.96;99709.81;4991853;28;20031;-60
2022/04/20 10:06:26;;;;;;;1.88;1.00;;;;;;;14.47;24.24;99743.72;4999844;28;20077;-61
2022/04/20 10:08:52;;;;;;;6.07;1.15;;;;;;;14.65;24.55;99731.78;4894955;28;20715;-59
2022/04/20 10:11:22;;;;;;;4.47;1.23;;;;;;;14.82;25.32;99718.97;4989421;28;20046;-59
2022/04/20 10:16:05;;;;;;;1.25;1.13;;;;;;;14.62;24.38;99732.78;4990946;28;20022;-60
2022/04/20 10:16:39;;;;;;;2.65;1.20;;;;;;;14.82;24.29;99733.75;4990966;28;20438;-60
2022/04/20 10:19:08;;;;;;;0.90;0.85;;;;;;;14.54;23.42;99747.81;4991360;28;20514;-59
2022/04/20 10:21:43;;;;;;;2.08;1.20;;;;;;;14.72;24.80;99717.63;4984328;28;20033;-62
2022/04/20 10:24:12;;;;;;;1.15;0.90;;;;;;;14.64;23.94;99724.88;4991837;28;20109;-60
2022/04/20 10:26:38;;;;;;;6.18;1.10;;;;;;;14.66;24.54;99717.84;4994841;28;20553;-61
2022/04/20 10:29:39;;;;;;;4.57;1.20;;;;;;;14.62;23.78;99757.97;4995135;28;20046;-60
2022/04/20 10:32:12;;;;;;;5.85;1.35;;;;;;;14.46;24.39;99677.69;4984508;28;20038;-60
2022/04/20 10:34:39;;;;;;;3.50;1.15;;;;;;;14.73;23.76;99732.34;4994752;28;20026;-58
2022/04/20 10:37:07;;;;;;;1.80;1.10;;;;;;;14.21;23.84;99674.31;4994627;28;20097;-58
2022/04/20 10:39:38;;;;;;;6.65;1.30;;;;;;;14.69;24.33;99727.31;4996330;28;20031;-59
2022/04/20 10:42:16;;;;;;;6.75;1.17;;;;;;;14.75;25.16;99721.84;4994404;28;20027;-59
2022/04/20 10:44:55;;;;;;;3.17;1.13;;;;;;;14.83;24.38;99672.88;4994479;28;20041;-59
2022/04/20 10:47:26;;;;;;;4.93;1.30;;;;;;;15.19;24.57;99706.22;4992033;28;20041;-59
2022/04/20 10:49:52;;;;;;;2.03;1.17;;;;;;;15.10;25.57;99698.78;4994485;28;20164;-58
2022/04/20 10:52:29;;;;;;;4.38;1.20;;;;;;;15.04;24.65;99727.72;4961614;28;20031;-58
2022/04/20 10:54:56;;;;;;;1.05;0.95;;;;;;;14.99;25.51;99693.97;4993566;28;20485;-59
2022/04/20 10:57:42;;;;;;;1.58;1.00;;;;;;;15.43;25.59;99693.09;4993128;28;20108;-59
2022/04/20 11:00:20;;;;;;;1.92;1.02;;;;;;;15.47;25.32;99698.13;4995180;28;20400;-60
2022/04/20 11:02:50;;;;;;;4.97;1.63;;;;;;;15.29;25.71;99691.91;4994775;28;20054;-60
2022/04/20 11:05:22;;;;;;;3.45;1.20;;;;;;;15.33;24.84;99709.16;4993676;28;20419;-59
2022/04/20 11:07:59;;;;;;;1.95;1.33;;;;;;;15.32;25.45;99701.34;4994550;28;20027;-58
2022/04/20 11:10:26;;;;;;;6.05;1.40;;;;;;;14.84;24.75;99717.16;4993511;28;20026;-60
2022/04/20 11:18:39;;;;;;;3.65;1.35;;;;;;;15.31;25.54;99700.53;4994773;28;20109;-59
2022/04/20 11:21:05;;;;;;;4.78;1.20;;;;;;;15.43;25.25;99693.94;4997053;28;20098;-59
2022/04/20 11:23:52;;;;;;;3.38;1.30;;;;;;;15.25;25.50;99703.38;4994747;28;20036;-59
2022/04/20 11:26:20;;;;;;;2.15;1.52;;;;;;;15.38;25.28;99695.91;4994732;28;20026;-59
2022/04/20 11:28:46;;;;;;;4.85;1.85;;;;;;;15.58;25.52;99676.81;4994815;28;20133;-59
2022/04/20 11:31:12;;;;;;;5.25;1.50;;;;;;;15.51;25.46;99693.63;4995216;28;20037;-59
2022/04/20 11:33:39;;;;;;;4.57;1.40;;;;;;;15.39;24.88;99678.47;4994286;28;20026;-59
2022/04/20 11:36:05;;;;;;;3.03;1.58;;;;;;;15.68;25.43;99693.78;4993524;28;20471;-60
2022/04/20 11:38:42;;;;;;;3.60;1.25;;;;;;;15.71;25.54;99692.78;4994668;28;20165;-60
2022/04/20 11:41:12;;;;;;;1.35;1.08;;;;;;;15.47;25.28;99684.22;4976872;28;20035;-59
2022/04/20 11:43:39;;;;;;;3.70;1.40;;;;;;;15.81;25.86;99695.91;4991912;28;20066;-59
2022/04/20 11:46:07;;;;;;;6.28;1.52;;;;;;;15.93;25.83;99669.22;4994705;28;20077;-59
2022/04/20 11:48:37;;;;;;;3.25;1.17;;;;;;;15.63;25.34;99692.25;5008235;28;20069;-58
2022/04/20 11:51:07;;;;;;;1.58;1.20;;;;;;;15.17;26.13;99688.03;4999348;28;20041;-59
2022/04/20 11:53:35;;;;;;;5.68;1.38;;;;;;;15.45;26.25;99666.03;4994079;28;20037;-58
2022/04/20 11:56:02;;;;;;;1.83;1.52;;;;;;;15.32;25.62;99683.09;5001595;28;20480;-59
2022/04/20 11:58:28;;;;;;;2.92;1.50;;;;;;;15.30;25.79;99671.88;5003969;28;20026;-58
2022/04/20 12:01:05;;;;;;;1.95;1.30;;;;;;;15.28;26.23;99651.06;4993985;28;20029;-58
2022/04/20 12:03:32;;;;;;;7.35;1.50;;;;;;;15.57;25.38;99661.22;4993672;28;20047;-58
2022/04/20 12:06:03;;;;;;;1.80;1.20;;;;;;;15.35;24.43;99649.91;4993601;28;20377;-57
2022/04/20 12:08:30;;;;;;;2.70;1.35;;;;;;;15.44;25.75;99653.03;5002389;28;20030;-58
2022/04/20 12:10:56;;;;;;;4.13;1.10;;;;;;;15.56;25.94;99643.84;5003634;28;20130;-58